sensor_id;sensor_type;location;lat;lon;timestamp;temperature;humidity
19206;DHT22;59358;52.134;5.596;2023-04-06T00:02:24;2.60;99.90
19206;DHT22;59358;52.134;5.596;2023-04-06T00:04:52;2.60;99.90
19206;DHT22;59358;52.134;5.596;2023-04-06T00:07:19;2.60;99.90
19206;DHT22;59358;52.134;5.596;2023-04-06T00:09:46;2.50;99.90
19206;DHT22;59358;52.134;5.596;2023-04-06T00:12:12;2.50;99.90
19206;DHT22;59358;52.134;5.596;2023-04-06T00:14:39;2.40;99.90
19206;DHT22;59358;52.134;5.596;2023-04-06T00:17:07;2.40;99.90
19206;DHT22;59358;52.134;5.596;2023-04-06T00:19:33;2.30;99.90
19206;DHT22;59358;52.134;5.596;2023-04-06T00:22:01;2.30;99.90
19206;DHT22;59358;52.134;5.596;2023-04-06T00:24:28;2.30;99.90
19206;DHT22;59358;52.134;5.596;2023-04-06T00:26:55;2.30;99.90
19206;DHT22;59358;52.134;5.596;2023-04-06T00:29:22;2.20;99.90
19206;DHT22;59358;52.134;5.596;2023-04-06T00:31:49;2.10;99.90
19206;DHT22;59358;52.134;5.596;2023-04-06T00:34:15;2.10;99.90
19206;DHT22;59358;52.134;5.596;2023-04-06T00:36:42;2.20;99.90
19206;DHT22;59358;52.134;5.596;2023-04-06T00:39:10;2.10;99.90
19206;DHT22;59358;52.134;5.596;2023-04-06T00:41:38;2.20;99.90
19206;DHT22;59358;52.134;5.596;2023-04-06T00:44:05;2.10;99.90
19206;DHT22;59358;52.134;5.596;2023-04-06T00:46:32;2.10;99.90
19206;DHT22;59358;52.134;5.596;2023-04-06T00:48:59;2.10;99.90
19206;DHT22;59358;52.134;5.596;2023-04-06T00:51:27;2.10;99.90
19206;DHT22;59358;52.134;5.596;2023-04-06T00:53:54;2.00;99.90
19206;DHT22;59358;52.134;5.596;2023-04-06T00:56:22;2.00;99.90
19206;DHT22;59358;52.134;5.596;2023-04-06T00:58:51;1.90;99.90
19206;DHT22;59358;52.134;5.596;2023-04-06T01:01:18;1.90;99.90
19206;DHT22;59358;52.134;5.596;2023-04-06T01:03:45;1.90;99.90
19206;DHT22;59358;52.134;5.596;2023-04-06T01:06:14;1.90;99.90
19206;DHT22;59358;52.134;5.596;2023-04-06T01:08:41;1.90;99.90
19206;DHT22;59358;52.134;5.596;2023-04-06T01:11:08;1.90;99.90
19206;DHT22;59358;52.134;5.596;2023-04-06T01:13:37;1.90;99.90
19206;DHT22;59358;52.134;5.596;2023-04-06T01:16:04;1.90;99.90
19206;DHT22;59358;52.134;5.596;2023-04-06T01:18:31;2.00;99.90
19206;DHT22;59358;52.134;5.596;2023-04-06T01:20:58;2.00;99.90
19206;DHT22;59358;52.134;5.596;2023-04-06T01:23:26;2.00;99.90
19206;DHT22;59358;52.134;5.596;2023-04-06T01:25:53;2.00;99.90
19206;DHT22;59358;52.134;5.596;2023-04-06T01:28:20;1.90;99.90
19206;DHT22;59358;52.134;5.596;2023-04-06T01:30:47;1.90;99.90
19206;DHT22;59358;52.134;5.596;2023-04-06T01:33:13;1.90;99.90
19206;DHT22;59358;52.134;5.596;2023-04-06T01:35:40;1.80;99.90
19206;DHT22;59358;52.134;5.596;2023-04-06T01:38:07;1.90;99.90
19206;DHT22;59358;52.134;5.596;2023-04-06T01:40:35;1.80;99.90
19206;DHT22;59358;52.134;5.596;2023-04-06T01:43:02;1.90;99.90
19206;DHT22;59358;52.134;5.596;2023-04-06T01:45:29;1.90;99.90
19206;DHT22;59358;52.134;5.596;2023-04-06T01:47:55;1.90;99.90
19206;DHT22;59358;52.134;5.596;2023-04-06T01:50:22;1.90;99.90
19206;DHT22;59358;52.134;5.596;2023-04-06T01:52:49;2.00;99.90
19206;DHT22;59358;52.134;5.596;2023-04-06T01:55:16;2.00;99.90
19206;DHT22;59358;52.134;5.596;2023-04-06T01:57:44;2.00;99.90
19206;DHT22;59358;52.134;5.596;2023-04-06T02:00:12;2.00;99.90
19206;DHT22;59358;52.134;5.596;2023-04-06T02:02:39;2.00;99.90
19206;DHT22;59358;52.134;5.596;2023-04-06T02:05:07;2.10;99.90
19206;DHT22;59358;52.134;5.596;2023-04-06T02:07:34;2.10;99.90
19206;DHT22;59358;52.134;5.596;2023-04-06T02:10:01;2.20;99.90
19206;DHT22;59358;52.134;5.596;2023-04-06T02:12:28;2.20;99.90
19206;DHT22;59358;52.134;5.596;2023-04-06T02:14:56;2.30;99.90
19206;DHT22;59358;52.134;5.596;2023-04-06T02:17:23;2.30;99.90
19206;DHT22;59358;52.134;5.596;2023-04-06T02:19:50;2.40;99.90
19206;DHT22;59358;52.134;5.596;2023-04-06T02:22:17;2.40;99.90
19206;DHT22;59358;52.134;5.596;2023-04-06T02:24:43;2.50;99.90
19206;DHT22;59358;52.134;5.596;2023-04-06T02:27:10;2.50;99.90
19206;DHT22;59358;52.134;5.596;2023-04-06T02:29:37;2.60;99.90
19206;DHT22;59358;52.134;5.596;2023-04-06T02:32:06;2.60;99.90
19206;DHT22;59358;52.134;5.596;2023-04-06T02:34:33;2.70;99.90
19206;DHT22;59358;52.134;5.596;2023-04-06T02:37:00;2.80;99.90
19206;DHT22;59358;52.134;5.596;2023-04-06T02:39:27;2.80;99.90
19206;DHT22;59358;52.134;5.596;2023-04-06T02:41:54;2.80;99.90
19206;DHT22;59358;52.134;5.596;2023-04-06T02:44:20;2.90;99.90
19206;DHT22;59358;52.134;5.596;2023-04-06T02:46:47;2.90;99.90
19206;DHT22;59358;52.134;5.596;2023-04-06T02:49:15;3.00;99.90
19206;DHT22;59358;52.134;5.596;2023-04-06T02:51:42;3.00;99.90
19206;DHT22;59358;52.134;5.596;2023-04-06T02:54:09;3.00;99.90
19206;DHT22;59358;52.134;5.596;2023-04-06T02:56:35;3.10;99.90
19206;DHT22;59358;52.134;5.596;2023-04-06T02:59:02;3.20;99.90
19206;DHT22;59358;52.134;5.596;2023-04-06T03:01:29;3.20;99.90
19206;DHT22;59358;52.134;5.596;2023-04-06T03:03:56;3.20;99.90
19206;DHT22;59358;52.134;5.596;2023-04-06T03:06:24;3.20;99.90
19206;DHT22;59358;52.134;5.596;2023-04-06T03:08:51;3.30;99.90
19206;DHT22;59358;52.134;5.596;2023-04-06T03:11:18;3.30;99.90
19206;DHT22;59358;52.134;5.596;2023-04-06T03:13:46;3.40;99.90
19206;DHT22;59358;52.134;5.596;2023-04-06T03:16:12;3.40;99.90
19206;DHT22;59358;52.134;5.596;2023-04-06T03:18:40;3.40;99.90
19206;DHT22;59358;52.134;5.596;2023-04-06T03:21:06;3.50;99.90
19206;DHT22;59358;52.134;5.596;2023-04-06T03:23:34;3.50;99.90
19206;DHT22;59358;52.134;5.596;2023-04-06T03:26:01;3.50;99.90
19206;DHT22;59358;52.134;5.596;2023-04-06T03:28:29;3.60;99.90
19206;DHT22;59358;52.134;5.596;2023-04-06T03:30:55;3.60;99.90
19206;DHT22;59358;52.134;5.596;2023-04-06T03:33:22;3.60;99.90
19206;DHT22;59358;52.134;5.596;2023-04-06T03:35:52;3.60;99.90
19206;DHT22;59358;52.134;5.596;2023-04-06T03:38:19;3.70;99.90
19206;DHT22;59358;52.134;5.596;2023-04-06T03:40:47;3.70;99.90
19206;DHT22;59358;52.134;5.596;2023-04-06T03:43:14;3.70;99.90
19206;DHT22;59358;52.134;5.596;2023-04-06T03:45:41;3.60;99.90
19206;DHT22;59358;52.134;5.596;2023-04-06T03:48:07;3.70;99.90
19206;DHT22;59358;52.134;5.596;2023-04-06T03:50:34;3.70;99.90
19206;DHT22;59358;52.134;5.596;2023-04-06T03:53:01;3.70;99.90
19206;DHT22;59358;52.134;5.596;2023-04-06T03:55:28;3.70;99.90
19206;DHT22;59358;52.134;5.596;2023-04-06T03:57:56;3.70;99.90
19206;DHT22;59358;52.134;5.596;2023-04-06T04:00:23;3.70;99.90
19206;DHT22;59358;52.134;5.596;2023-04-06T04:02:50;3.70;99.90
19206;DHT22;59358;52.134;5.596;2023-04-06T04:05:17;3.70;99.90
19206;DHT22;59358;52.134;5.596;2023-04-06T04:07:43;3.70;99.90
19206;DHT22;59358;52.134;5.596;2023-04-06T04:10:10;3.80;99.90
19206;DHT22;59358;52.134;5.596;2023-04-06T04:12:37;3.80;99.90
19206;DHT22;59358;52.134;5.596;2023-04-06T04:15:06;3.80;99.90
19206;DHT22;59358;52.134;5.596;2023-04-06T04:17:33;3.80;99.90
19206;DHT22;59358;52.134;5.596;2023-04-06T04:20:00;3.80;99.90
19206;DHT22;59358;52.134;5.596;2023-04-06T04:22:26;3.80;99.90
19206;DHT22;59358;52.134;5.596;2023-04-06T04:24:53;3.80;99.90
19206;DHT22;59358;52.134;5.596;2023-04-06T04:27:20;3.70;99.90
19206;DHT22;59358;52.134;5.596;2023-04-06T04:29:47;3.70;99.90
19206;DHT22;59358;52.134;5.596;2023-04-06T04:32:15;3.80;99.90
19206;DHT22;59358;52.134;5.596;2023-04-06T04:34:42;3.70;99.90
19206;DHT22;59358;52.134;5.596;2023-04-06T04:37:09;3.80;99.90
19206;DHT22;59358;52.134;5.596;2023-04-06T04:39:36;3.70;99.90
19206;DHT22;59358;52.134;5.596;2023-04-06T04:42:02;3.70;99.90
19206;DHT22;59358;52.134;5.596;2023-04-06T04:44:29;3.70;99.90
19206;DHT22;59358;52.134;5.596;2023-04-06T04:46:56;3.70;99.90
19206;DHT22;59358;52.134;5.596;2023-04-06T04:49:24;3.70;99.90
19206;DHT22;59358;52.134;5.596;2023-04-06T04:51:51;3.60;99.90
19206;DHT22;59358;52.134;5.596;2023-04-06T04:54:18;3.70;99.90
19206;DHT22;59358;52.134;5.596;2023-04-06T04:56:45;3.60;99.90
19206;DHT22;59358;52.134;5.596;2023-04-06T04:59:12;3.60;99.90
19206;DHT22;59358;52.134;5.596;2023-04-06T05:01:38;3.60;99.90
19206;DHT22;59358;52.134;5.596;2023-04-06T05:04:05;3.60;99.90
19206;DHT22;59358;52.134;5.596;2023-04-06T05:06:33;3.60;99.90
19206;DHT22;59358;52.134;5.596;2023-04-06T05:09:00;3.60;99.90
19206;DHT22;59358;52.134;5.596;2023-04-06T05:11:28;3.60;99.90
19206;DHT22;59358;52.134;5.596;2023-04-06T05:13:55;3.60;99.90
19206;DHT22;59358;52.134;5.596;2023-04-06T05:16:22;3.60;99.90
19206;DHT22;59358;52.134;5.596;2023-04-06T05:18:49;3.60;99.90
19206;DHT22;59358;52.134;5.596;2023-04-06T05:21:16;3.70;99.90
19206;DHT22;59358;52.134;5.596;2023-04-06T05:23:44;3.70;99.90
19206;DHT22;59358;52.134;5.596;2023-04-06T05:26:11;3.80;99.90
19206;DHT22;59358;52.134;5.596;2023-04-06T05:28:38;3.80;99.90
19206;DHT22;59358;52.134;5.596;2023-04-06T05:31:05;3.90;99.90
19206;DHT22;59358;52.134;5.596;2023-04-06T05:33:31;4.00;99.90
19206;DHT22;59358;52.134;5.596;2023-04-06T05:35:58;4.10;99.90
19206;DHT22;59358;52.134;5.596;2023-04-06T05:38:26;4.20;99.90
19206;DHT22;59358;52.134;5.596;2023-04-06T05:40:54;4.30;99.90
19206;DHT22;59358;52.134;5.596;2023-04-06T05:43:21;4.40;99.90
19206;DHT22;59358;52.134;5.596;2023-04-06T05:45:48;4.50;99.90
19206;DHT22;59358;52.134;5.596;2023-04-06T05:48:14;4.60;99.90
19206;DHT22;59358;52.134;5.596;2023-04-06T05:50:41;4.70;99.90
19206;DHT22;59358;52.134;5.596;2023-04-06T05:53:08;4.80;99.90
19206;DHT22;59358;52.134;5.596;2023-04-06T05:55:35;4.90;99.90
19206;DHT22;59358;52.134;5.596;2023-04-06T05:58:03;5.10;99.90
19206;DHT22;59358;52.134;5.596;2023-04-06T06:00:29;5.20;99.90
19206;DHT22;59358;52.134;5.596;2023-04-06T06:02:56;5.40;99.90
19206;DHT22;59358;52.134;5.596;2023-04-06T06:05:23;5.50;99.90
19206;DHT22;59358;52.134;5.596;2023-04-06T06:07:50;5.70;99.90
19206;DHT22;59358;52.134;5.596;2023-04-06T06:10:17;5.80;99.90
19206;DHT22;59358;52.134;5.596;2023-04-06T06:12:43;6.00;99.90
19206;DHT22;59358;52.134;5.596;2023-04-06T06:15:12;6.10;99.90
19206;DHT22;59358;52.134;5.596;2023-04-06T06:17:39;6.20;99.90
19206;DHT22;59358;52.134;5.596;2023-04-06T06:20:07;6.30;99.90
19206;DHT22;59358;52.134;5.596;2023-04-06T06:22:34;6.30;99.90
19206;DHT22;59358;52.134;5.596;2023-04-06T06:25:01;6.40;99.90
19206;DHT22;59358;52.134;5.596;2023-04-06T06:27:27;6.50;99.90
19206;DHT22;59358;52.134;5.596;2023-04-06T06:29:54;6.60;99.90
19206;DHT22;59358;52.134;5.596;2023-04-06T06:32:23;6.80;99.90
19206;DHT22;59358;52.134;5.596;2023-04-06T06:34:50;7.10;99.90
19206;DHT22;59358;52.134;5.596;2023-04-06T06:37:17;7.20;99.90
19206;DHT22;59358;52.134;5.596;2023-04-06T06:39:43;7.30;99.90
19206;DHT22;59358;52.134;5.596;2023-04-06T06:42:10;7.40;99.90
19206;DHT22;59358;52.134;5.596;2023-04-06T06:44:37;7.40;99.90
19206;DHT22;59358;52.134;5.596;2023-04-06T06:47:04;7.40;99.90
19206;DHT22;59358;52.134;5.596;2023-04-06T06:49:32;7.50;99.90
19206;DHT22;59358;52.134;5.596;2023-04-06T06:51:59;7.60;99.90
19206;DHT22;59358;52.134;5.596;2023-04-06T06:54:26;7.50;99.90
19206;DHT22;59358;52.134;5.596;2023-04-06T06:56:53;7.60;99.90
19206;DHT22;59358;52.134;5.596;2023-04-06T06:59:20;7.70;99.90
19206;DHT22;59358;52.134;5.596;2023-04-06T07:01:47;7.80;99.90
19206;DHT22;59358;52.134;5.596;2023-04-06T07:04:14;8.10;99.90
19206;DHT22;59358;52.134;5.596;2023-04-06T07:06:42;8.20;99.90
19206;DHT22;59358;52.134;5.596;2023-04-06T07:09:09;8.40;99.90
19206;DHT22;59358;52.134;5.596;2023-04-06T07:11:35;8.60;99.90
19206;DHT22;59358;52.134;5.596;2023-04-06T07:14:02;8.80;99.90
19206;DHT22;59358;52.134;5.596;2023-04-06T07:16:29;8.90;99.90
19206;DHT22;59358;52.134;5.596;2023-04-06T07:18:56;8.90;99.90
19206;DHT22;59358;52.134;5.596;2023-04-06T07:21:23;8.90;99.90
19206;DHT22;59358;52.134;5.596;2023-04-06T07:23:53;8.90;99.90
19206;DHT22;59358;52.134;5.596;2023-04-06T07:26:20;8.90;99.90
19206;DHT22;59358;52.134;5.596;2023-04-06T07:28:47;8.60;99.90
19206;DHT22;59358;52.134;5.596;2023-04-06T07:31:14;8.60;99.90
19206;DHT22;59358;52.134;5.596;2023-04-06T07:33:41;8.60;99.90
19206;DHT22;59358;52.134;5.596;2023-04-06T07:36:08;8.60;99.90
19206;DHT22;59358;52.134;5.596;2023-04-06T07:38:34;8.70;99.90
19206;DHT22;59358;52.134;5.596;2023-04-06T07:41:03;8.70;99.90
19206;DHT22;59358;52.134;5.596;2023-04-06T07:43:30;8.80;99.90
19206;DHT22;59358;52.134;5.596;2023-04-06T07:45:57;8.70;99.90
19206;DHT22;59358;52.134;5.596;2023-04-06T07:48:25;8.70;99.90
19206;DHT22;59358;52.134;5.596;2023-04-06T07:50:52;8.70;99.90
19206;DHT22;59358;52.134;5.596;2023-04-06T07:53:26;8.70;99.90
19206;DHT22;59358;52.134;5.596;2023-04-06T07:55:53;8.80;99.90
19206;DHT22;59358;52.134;5.596;2023-04-06T07:58:22;8.90;99.90
19206;DHT22;59358;52.134;5.596;2023-04-06T08:00:49;9.00;99.90
19206;DHT22;59358;52.134;5.596;2023-04-06T08:03:16;8.80;99.90
19206;DHT22;59358;52.134;5.596;2023-04-06T08:05:43;8.80;99.90
19206;DHT22;59358;52.134;5.596;2023-04-06T08:08:10;8.70;99.90
19206;DHT22;59358;52.134;5.596;2023-04-06T08:10:37;8.70;99.90
19206;DHT22;59358;52.134;5.596;2023-04-06T08:13:04;8.70;99.90
19206;DHT22;59358;52.134;5.596;2023-04-06T08:15:32;8.90;99.90
19206;DHT22;59358;52.134;5.596;2023-04-06T08:17:59;9.00;99.90
19206;DHT22;59358;52.134;5.596;2023-04-06T08:20:26;9.10;99.90
19206;DHT22;59358;52.134;5.596;2023-04-06T08:22:53;9.20;99.90
19206;DHT22;59358;52.134;5.596;2023-04-06T08:25:19;9.40;99.90
19206;DHT22;59358;52.134;5.596;2023-04-06T08:27:46;9.30;99.90
19206;DHT22;59358;52.134;5.596;2023-04-06T08:30:13;9.60;99.90
19206;DHT22;59358;52.134;5.596;2023-04-06T08:32:42;9.70;99.90
19206;DHT22;59358;52.134;5.596;2023-04-06T08:35:09;9.90;99.90
19206;DHT22;59358;52.134;5.596;2023-04-06T08:37:36;10.10;99.90
19206;DHT22;59358;52.134;5.596;2023-04-06T08:40:06;9.80;99.90
19206;DHT22;59358;52.134;5.596;2023-04-06T08:42:39;9.80;99.90
19206;DHT22;59358;52.134;5.596;2023-04-06T08:45:08;9.90;99.90
19206;DHT22;59358;52.134;5.596;2023-04-06T08:47:36;9.90;99.90
19206;DHT22;59358;52.134;5.596;2023-04-06T08:50:05;9.70;99.90
19206;DHT22;59358;52.134;5.596;2023-04-06T08:52:32;9.70;99.90
19206;DHT22;59358;52.134;5.596;2023-04-06T08:54:59;9.70;99.90
19206;DHT22;59358;52.134;5.596;2023-04-06T08:57:27;9.80;99.90
19206;DHT22;59358;52.134;5.596;2023-04-06T08:59:55;9.90;99.90
19206;DHT22;59358;52.134;5.596;2023-04-06T09:02:22;9.80;99.90
19206;DHT22;59358;52.134;5.596;2023-04-06T09:04:53;9.90;99.90
19206;DHT22;59358;52.134;5.596;2023-04-06T09:07:21;9.80;99.90
19206;DHT22;59358;52.134;5.596;2023-04-06T09:09:49;9.90;99.90
19206;DHT22;59358;52.134;5.596;2023-04-06T09:12:24;10.10;99.90
19206;DHT22;59358;52.134;5.596;2023-04-06T09:14:52;10.20;99.90
19206;DHT22;59358;52.134;5.596;2023-04-06T09:17:22;10.40;99.90
19206;DHT22;59358;52.134;5.596;2023-04-06T09:19:50;10.50;99.90
19206;DHT22;59358;52.134;5.596;2023-04-06T09:22:18;10.60;99.90
19206;DHT22;59358;52.134;5.596;2023-04-06T09:24:50;10.70;99.90
19206;DHT22;59358;52.134;5.596;2023-04-06T09:27:17;10.40;99.90
19206;DHT22;59358;52.134;5.596;2023-04-06T09:29:44;10.20;99.90
19206;DHT22;59358;52.134;5.596;2023-04-06T09:32:11;10.20;99.90
19206;DHT22;59358;52.134;5.596;2023-04-06T09:34:42;10.30;99.90
19206;DHT22;59358;52.134;5.596;2023-04-06T09:37:12;10.60;99.90
19206;DHT22;59358;52.134;5.596;2023-04-06T09:39:40;10.70;99.90
19206;DHT22;59358;52.134;5.596;2023-04-06T09:42:08;10.60;99.90
19206;DHT22;59358;52.134;5.596;2023-04-06T09:44:35;10.30;99.90
19206;DHT22;59358;52.134;5.596;2023-04-06T09:47:06;10.40;99.90
19206;DHT22;59358;52.134;5.596;2023-04-06T09:49:33;10.70;99.90
19206;DHT22;59358;52.134;5.596;2023-04-06T09:52:02;10.80;99.90
19206;DHT22;59358;52.134;5.596;2023-04-06T09:54:31;11.00;99.90
19206;DHT22;59358;52.134;5.596;2023-04-06T09:57:03;10.90;99.90
19206;DHT22;59358;52.134;5.596;2023-04-06T09:59:40;10.80;99.90
19206;DHT22;59358;52.134;5.596;2023-04-06T10:02:15;11.00;99.90
19206;DHT22;59358;52.134;5.596;2023-04-06T10:04:49;10.90;99.90
19206;DHT22;59358;52.134;5.596;2023-04-06T10:07:17;10.80;99.90
19206;DHT22;59358;52.134;5.596;2023-04-06T10:09:46;11.00;99.90
19206;DHT22;59358;52.134;5.596;2023-04-06T10:12:14;11.00;99.90
19206;DHT22;59358;52.134;5.596;2023-04-06T10:14:43;10.80;99.90
19206;DHT22;59358;52.134;5.596;2023-04-06T10:17:10;10.80;99.90
19206;DHT22;59358;52.134;5.596;2023-04-06T10:19:44;11.30;99.90
19206;DHT22;59358;52.134;5.596;2023-04-06T10:22:18;11.80;99.90
19206;DHT22;59358;52.134;5.596;2023-04-06T10:24:49;11.90;99.90
19206;DHT22;59358;52.134;5.596;2023-04-06T10:27:15;12.20;99.90
19206;DHT22;59358;52.134;5.596;2023-04-06T10:29:45;12.30;99.90
19206;DHT22;59358;52.134;5.596;2023-04-06T10:32:13;12.40;99.90
19206;DHT22;59358;52.134;5.596;2023-04-06T10:34:39;12.60;99.90
19206;DHT22;59358;52.134;5.596;2023-04-06T10:37:13;12.40;99.90
19206;DHT22;59358;52.134;5.596;2023-04-06T10:39:46;12.20;99.90
19206;DHT22;59358;52.134;5.596;2023-04-06T10:42:14;12.20;99.90
19206;DHT22;59358;52.134;5.596;2023-04-06T10:44:44;12.20;99.90
19206;DHT22;59358;52.134;5.596;2023-04-06T10:47:16;11.90;99.90
19206;DHT22;59358;52.134;5.596;2023-04-06T10:49:43;11.70;99.90
19206;DHT22;59358;52.134;5.596;2023-04-06T10:52:10;11.50;99.90
19206;DHT22;59358;52.134;5.596;2023-04-06T10:54:41;11.50;99.90
19206;DHT22;59358;52.134;5.596;2023-04-06T10:57:08;11.40;99.90
19206;DHT22;59358;52.134;5.596;2023-04-06T10:59:35;11.40;99.90
19206;DHT22;59358;52.134;5.596;2023-04-06T11:02:03;11.60;99.90
19206;DHT22;59358;52.134;5.596;2023-04-06T11:04:31;11.50;99.90
19206;DHT22;59358;52.134;5.596;2023-04-06T11:06:58;11.30;99.90
19206;DHT22;59358;52.134;5.596;2023-04-06T11:09:25;11.20;99.90
19206;DHT22;59358;52.134;5.596;2023-04-06T11:11:52;11.20;99.90
19206;DHT22;59358;52.134;5.596;2023-04-06T11:14:19;11.10;99.90
19206;DHT22;59358;52.134;5.596;2023-04-06T11:16:47;11.10;99.90
19206;DHT22;59358;52.134;5.596;2023-04-06T11:19:16;11.20;99.90
19206;DHT22;59358;52.134;5.596;2023-04-06T11:21:44;11.00;99.90
19206;DHT22;59358;52.134;5.596;2023-04-06T11:24:14;10.50;99.90
19206;DHT22;59358;52.134;5.596;2023-04-06T11:26:43;10.40;99.90
19206;DHT22;59358;52.134;5.596;2023-04-06T11:29:11;10.30;99.90
19206;DHT22;59358;52.134;5.596;2023-04-06T11:31:39;10.20;99.90
19206;DHT22;59358;52.134;5.596;2023-04-06T11:34:10;10.10;99.90
19206;DHT22;59358;52.134;5.596;2023-04-06T11:36:41;10.10;99.90
19206;DHT22;59358;52.134;5.596;2023-04-06T11:39:09;10.00;99.90
19206;DHT22;59358;52.134;5.596;2023-04-06T11:41:36;9.90;99.90
19206;DHT22;59358;52.134;5.596;2023-04-06T11:44:03;9.70;99.90
19206;DHT22;59358;52.134;5.596;2023-04-06T11:46:31;9.80;99.90
19206;DHT22;59358;52.134;5.596;2023-04-06T11:48:59;9.90;99.90
19206;DHT22;59358;52.134;5.596;2023-04-06T11:51:26;10.00;99.90
19206;DHT22;59358;52.134;5.596;2023-04-06T11:53:54;10.20;99.90
19206;DHT22;59358;52.134;5.596;2023-04-06T11:56:26;10.30;99.90
19206;DHT22;59358;52.134;5.596;2023-04-06T11:58:57;10.20;99.90
19206;DHT22;59358;52.134;5.596;2023-04-06T12:01:25;10.30;99.90
19206;DHT22;59358;52.134;5.596;2023-04-06T12:03:52;10.40;99.90
19206;DHT22;59358;52.134;5.596;2023-04-06T12:06:19;10.20;99.90
19206;DHT22;59358;52.134;5.596;2023-04-06T12:08:46;10.10;99.90
19206;DHT22;59358;52.134;5.596;2023-04-06T12:11:14;10.00;99.90
19206;DHT22;59358;52.134;5.596;2023-04-06T12:13:41;9.80;99.90
19206;DHT22;59358;52.134;5.596;2023-04-06T12:16:07;9.70;99.90
19206;DHT22;59358;52.134;5.596;2023-04-06T12:18:34;9.60;99.90
19206;DHT22;59358;52.134;5.596;2023-04-06T12:21:01;9.90;99.90
19206;DHT22;59358;52.134;5.596;2023-04-06T12:23:28;10.10;99.90
19206;DHT22;59358;52.134;5.596;2023-04-06T12:25:55;10.20;99.90
19206;DHT22;59358;52.134;5.596;2023-04-06T12:28:23;10.20;99.90
19206;DHT22;59358;52.134;5.596;2023-04-06T12:30:52;10.20;99.90
19206;DHT22;59358;52.134;5.596;2023-04-06T12:33:19;10.20;99.90
19206;DHT22;59358;52.134;5.596;2023-04-06T12:35:46;10.10;99.90
19206;DHT22;59358;52.134;5.596;2023-04-06T12:38:13;10.00;99.90
19206;DHT22;59358;52.134;5.596;2023-04-06T12:40:39;10.10;99.90
19206;DHT22;59358;52.134;5.596;2023-04-06T12:43:06;10.20;99.90
19206;DHT22;59358;52.134;5.596;2023-04-06T12:45:35;10.30;99.90
19206;DHT22;59358;52.134;5.596;2023-04-06T12:48:02;10.30;99.90
19206;DHT22;59358;52.134;5.596;2023-04-06T12:50:29;10.40;99.90
19206;DHT22;59358;52.134;5.596;2023-04-06T12:52:56;10.40;99.90
19206;DHT22;59358;52.134;5.596;2023-04-06T12:55:22;10.40;99.90
19206;DHT22;59358;52.134;5.596;2023-04-06T12:57:49;10.40;99.90
19206;DHT22;59358;52.134;5.596;2023-04-06T13:00:17;10.20;99.90
19206;DHT22;59358;52.134;5.596;2023-04-06T13:02:45;10.20;99.90
19206;DHT22;59358;52.134;5.596;2023-04-06T13:05:13;10.30;99.90
19206;DHT22;59358;52.134;5.596;2023-04-06T13:07:44;10.20;99.90
19206;DHT22;59358;52.134;5.596;2023-04-06T13:10:11;10.20;99.90
19206;DHT22;59358;52.134;5.596;2023-04-06T13:12:37;10.00;99.90
19206;DHT22;59358;52.134;5.596;2023-04-06T13:15:05;9.70;99.90
19206;DHT22;59358;52.134;5.596;2023-04-06T13:17:32;9.70;99.90
19206;DHT22;59358;52.134;5.596;2023-04-06T13:20:00;9.60;99.90
19206;DHT22;59358;52.134;5.596;2023-04-06T13:22:29;9.50;99.90
19206;DHT22;59358;52.134;5.596;2023-04-06T13:24:55;9.50;99.90
19206;DHT22;59358;52.134;5.596;2023-04-06T13:27:22;9.60;99.90
19206;DHT22;59358;52.134;5.596;2023-04-06T13:29:49;9.50;99.90
19206;DHT22;59358;52.134;5.596;2023-04-06T13:32:17;9.50;99.90
19206;DHT22;59358;52.134;5.596;2023-04-06T13:34:43;9.50;99.90
19206;DHT22;59358;52.134;5.596;2023-04-06T13:37:13;9.50;99.90
19206;DHT22;59358;52.134;5.596;2023-04-06T13:39:40;9.60;99.90
19206;DHT22;59358;52.134;5.596;2023-04-06T13:42:07;9.50;99.90
19206;DHT22;59358;52.134;5.596;2023-04-06T13:44:35;9.50;99.90
19206;DHT22;59358;52.134;5.596;2023-04-06T13:47:02;9.50;99.90
19206;DHT22;59358;52.134;5.596;2023-04-06T13:49:28;9.50;99.90
19206;DHT22;59358;52.134;5.596;2023-04-06T13:51:55;9.60;99.90
19206;DHT22;59358;52.134;5.596;2023-04-06T13:54:23;9.70;99.90
19206;DHT22;59358;52.134;5.596;2023-04-06T13:56:52;9.50;99.90
19206;DHT22;59358;52.134;5.596;2023-04-06T13:59:19;9.50;99.90
19206;DHT22;59358;52.134;5.596;2023-04-06T14:01:47;9.50;99.90
19206;DHT22;59358;52.134;5.596;2023-04-06T14:04:13;9.50;99.90
19206;DHT22;59358;52.134;5.596;2023-04-06T14:06:40;9.40;99.90
19206;DHT22;59358;52.134;5.596;2023-04-06T14:09:07;9.20;99.90
19206;DHT22;59358;52.134;5.596;2023-04-06T14:11:36;9.20;99.90
19206;DHT22;59358;52.134;5.596;2023-04-06T14:14:03;9.20;99.90
19206;DHT22;59358;52.134;5.596;2023-04-06T14:16:30;9.10;99.90
19206;DHT22;59358;52.134;5.596;2023-04-06T14:18:57;9.10;99.90
19206;DHT22;59358;52.134;5.596;2023-04-06T14:21:24;9.00;99.90
19206;DHT22;59358;52.134;5.596;2023-04-06T14:23:51;8.90;99.90
19206;DHT22;59358;52.134;5.596;2023-04-06T14:26:19;8.80;99.90
19206;DHT22;59358;52.134;5.596;2023-04-06T14:28:47;8.80;99.90
19206;DHT22;59358;52.134;5.596;2023-04-06T14:31:14;8.80;99.90
19206;DHT22;59358;52.134;5.596;2023-04-06T14:33:42;8.60;99.90
19206;DHT22;59358;52.134;5.596;2023-04-06T14:36:09;8.60;99.90
19206;DHT22;59358;52.134;5.596;2023-04-06T14:38:36;8.60;99.90
19206;DHT22;59358;52.134;5.596;2023-04-06T14:41:03;8.60;99.90
19206;DHT22;59358;52.134;5.596;2023-04-06T14:43:30;8.60;99.90
19206;DHT22;59358;52.134;5.596;2023-04-06T14:46:01;8.70;99.90
19206;DHT22;59358;52.134;5.596;2023-04-06T14:48:28;8.60;99.90
19206;DHT22;59358;52.134;5.596;2023-04-06T14:50:55;8.60;99.90
19206;DHT22;59358;52.134;5.596;2023-04-06T14:53:23;8.60;99.90
19206;DHT22;59358;52.134;5.596;2023-04-06T14:55:50;8.50;99.90
19206;DHT22;59358;52.134;5.596;2023-04-06T14:58:17;8.60;99.90
19206;DHT22;59358;52.134;5.596;2023-04-06T15:00:44;8.50;99.90
19206;DHT22;59358;52.134;5.596;2023-04-06T15:03:13;8.50;99.90
19206;DHT22;59358;52.134;5.596;2023-04-06T15:05:40;8.60;99.90
19206;DHT22;59358;52.134;5.596;2023-04-06T15:08:07;8.60;99.90
19206;DHT22;59358;52.134;5.596;2023-04-06T15:10:34;8.60;99.90
19206;DHT22;59358;52.134;5.596;2023-04-06T15:13:01;8.60;99.90
19206;DHT22;59358;52.134;5.596;2023-04-06T15:15:28;8.60;99.90
19206;DHT22;59358;52.134;5.596;2023-04-06T15:17:55;8.60;99.90
19206;DHT22;59358;52.134;5.596;2023-04-06T15:20:23;8.50;99.90
19206;DHT22;59358;52.134;5.596;2023-04-06T15:22:50;8.60;99.90
19206;DHT22;59358;52.134;5.596;2023-04-06T15:25:17;8.60;99.90
19206;DHT22;59358;52.134;5.596;2023-04-06T15:27:44;8.50;99.90
19206;DHT22;59358;52.134;5.596;2023-04-06T15:30:11;8.50;99.90
19206;DHT22;59358;52.134;5.596;2023-04-06T15:32:38;8.50;99.90
19206;DHT22;59358;52.134;5.596;2023-04-06T15:35:09;8.50;99.90
19206;DHT22;59358;52.134;5.596;2023-04-06T15:37:38;8.50;99.90
19206;DHT22;59358;52.134;5.596;2023-04-06T15:40:06;8.50;99.90
19206;DHT22;59358;52.134;5.596;2023-04-06T15:42:33;8.50;99.90
19206;DHT22;59358;52.134;5.596;2023-04-06T15:45:00;8.50;99.90